Search for airport 
image banner adimage banner adimage banner ad
image banner ad

5IA8 - Sanford Rock Rapids Medical Center

Located in Rock Rapids, United States

ICAO - 5IA8, IATA -

Data provided by Airmate  

General information

Coordinates: N43°25'27" W96°10'18"
Elevation is 1360 feet MSL.
Magnetic variation is 06° East
View others Airports in Iowa

Operational data

Special qualification required
Current time UTC:
Current local time:
Weather at : KLYV - Quentin Aanenson Field ( 22 km )
METAR: KLYV 150955Z AUTO 00000KT 10SM CLR 14/07 A3015 RMK AO2
View NOTAMs / SUP AIP / TFR affecting this airport [VIEW]
Communications frequencies: [VIEW]

Runways:

Airport contact information

Address: Rock Rapids United States

Satellite view of 5IA8